Capitol Logistics 7353

Operating for MZN



KAFW
Fort Worth Alliance Airport
Fort Worth, Texas
KATL
Hartsfield - Jackson Atlanta International Airport
Atlanta, Georgia

Activity Log

Date Flight Route Aircraft Duration
No Flights Yet

Route Details

Aircraft Information
Primary: Boeing 737-800BCF
Backup: Boeing 757-200SF
Route Data
Distance: 648nm
Duration: 1h 37m
Recm'd Route: KUSSO7 FORCK ELD MEI ORRKK HOBTT2
Origin Wx: KAFW 180253Z 33006KT 10SM BKN150 BKN210 12/05 A3014 RMK AO2 SLP208 T01170050 53019 $
Dest. Wx: KATL 180252Z 31008KT 10SM SCT210 BKN250 17/06 A2987 RMK AO2 SLP113 T01670061 51010
Notes: